Time;durP1;ratioP1;P1;durP2;ratioP2;P2;SDS_P1;SDS_P2;PMS_P1;PMS_P2;Temp;Humidity;BMP_temperature;BMP_pressure;BME280_temperature;BME280_humidity;BME280_pressure;Samples;Min_cycle;Max_cycle;Signal;HPM_P1;HPM_P2
2023/05/31 00:01:42;;;;;;;4.75;4.28;;;17.20;94.20;;;;;;5024359;28;20295;-37
2023/05/31 00:04:10;;;;;;;5.68;4.43;;;17.20;94.20;;;;;;5022813;28;20221;-36
2023/05/31 00:06:39;;;;;;;4.35;3.95;;;17.20;94.30;;;;;;5034388;28;20208;-36
2023/05/31 00:09:14;;;;;;;4.82;4.20;;;17.20;94.30;;;;;;5046841;28;20211;-36
2023/05/31 00:11:44;;;;;;;5.13;4.63;;;17.20;94.40;;;;;;5048508;28;20669;-36
2023/05/31 00:14:11;;;;;;;5.70;4.50;;;17.10;94.60;;;;;;5030054;28;20339;-39
2023/05/31 00:16:40;;;;;;;5.50;4.57;;;17.10;94.60;;;;;;5026097;28;20208;-36
2023/05/31 00:19:32;;;;;;;4.35;3.95;;;17.10;94.70;;;;;;5026670;28;20634;-36
2023/05/31 00:22:02;;;;;;;4.70;4.13;;;17.10;94.50;;;;;;5027505;28;20255;-39
2023/05/31 00:24:31;;;;;;;4.82;4.35;;;17.10;94.40;;;;;;5041840;28;20211;-37
2023/05/31 00:27:01;;;;;;;4.22;3.65;;;17.00;94.30;;;;;;5046795;28;20215;-37
2023/05/31 00:29:31;;;;;;;4.75;4.30;;;17.00;94.30;;;;;;5008937;28;20213;-36
2023/05/31 00:32:00;;;;;;;5.22;4.72;;;17.00;94.40;;;;;;5013920;28;20201;-36
2023/05/31 00:34:30;;;;;;;5.50;4.88;;;17.00;94.60;;;;;;5008100;28;20201;-37
2023/05/31 00:36:59;;;;;;;5.18;4.68;;;16.90;94.60;;;;;;5026704;28;20600;-37
2023/05/31 00:39:27;;;;;;;4.70;4.30;;;16.90;94.50;;;;;;5026179;28;20221;-37
2023/05/31 00:41:55;;;;;;;4.80;4.22;;;17.00;94.50;;;;;;5026117;28;20196;-37
2023/05/31 00:44:22;;;;;;;5.13;4.68;;;16.90;94.40;;;;;;5027020;28;20213;-36
2023/05/31 00:46:52;;;;;;;5.50;4.82;;;16.90;94.70;;;;;;5025375;28;20223;-36
2023/05/31 00:49:26;;;;;;;5.38;4.60;;;16.90;94.60;;;;;;5027576;28;20282;-37
2023/05/31 00:51:54;;;;;;;6.15;4.63;;;16.90;94.50;;;;;;5027486;28;20200;-36
2023/05/31 00:54:24;;;;;;;5.78;4.72;;;16.80;94.50;;;;;;5009635;28;20515;-37
2023/05/31 00:56:52;;;;;;;5.35;4.70;;;16.80;94.50;;;;;;5026246;28;20226;-37
2023/05/31 00:59:22;;;;;;;5.57;4.65;;;16.80;94.70;;;;;;5024439;28;20242;-37
2023/05/31 01:01:50;;;;;;;4.68;4.28;;;16.80;94.50;;;;;;5014837;28;20201;-36
2023/05/31 01:04:22;;;;;;;4.95;4.45;;;16.80;94.60;;;;;;5014596;28;20232;-36
2023/05/31 01:06:51;;;;;;;4.82;4.20;;;16.80;94.60;;;;;;5018984;28;20205;-37
2023/05/31 01:09:23;;;;;;;4.97;4.47;;;16.80;94.60;;;;;;5018699;28;20262;-36
2023/05/31 01:12:02;;;;;;;5.68;4.80;;;16.80;94.70;;;;;;5025810;28;20196;-37
2023/05/31 01:14:53;;;;;;;4.88;4.38;;;16.70;94.60;;;;;;5024810;28;20219;-36
2023/05/31 01:17:44;;;;;;;4.82;4.32;;;16.70;94.60;;;;;;5018887;28;20217;-36
2023/05/31 01:20:17;;;;;;;5.28;4.78;;;16.70;94.80;;;;;;5026188;28;20549;-36
2023/05/31 01:23:10;;;;;;;5.30;4.00;;;16.70;94.60;;;;;;5020714;28;20209;-37
2023/05/31 01:26:05;;;;;;;4.88;4.43;;;16.60;94.70;;;;;;5016531;28;20271;-36
2023/05/31 01:28:36;;;;;;;4.78;4.10;;;16.60;94.90;;;;;;5012540;28;20221;-37
2023/05/31 01:31:08;;;;;;;4.25;3.95;;;16.60;94.70;;;;;;5024499;28;20208;-36
2023/05/31 01:33:36;;;;;;;4.72;4.22;;;16.50;94.90;;;;;;5011053;28;20286;-36
2023/05/31 01:36:08;;;;;;;4.88;4.38;;;16.50;94.50;;;;;;5025232;28;20777;-36
2023/05/31 01:38:35;;;;;;;4.57;3.97;;;16.50;94.60;;;;;;5024304;28;20294;-36
2023/05/31 01:41:07;;;;;;;4.97;4.57;;;16.50;94.60;;;;;;5014543;28;20275;-36
2023/05/31 01:43:37;;;;;;;5.65;4.78;;;16.50;94.60;;;;;;5041962;28;20293;-36
2023/05/31 01:46:08;;;;;;;5.00;4.50;;;16.40;94.60;;;;;;5010995;28;20235;-36
2023/05/31 01:48:36;;;;;;;5.40;4.75;;;16.40;94.70;;;;;;5039545;28;20228;-37
2023/05/31 01:51:08;;;;;;;5.32;4.82;;;16.40;94.70;;;;;;5020017;28;20225;-37
2023/05/31 01:53:35;;;;;;;6.05;5.10;;;16.30;94.70;;;;;;5022995;28;20248;-37
2023/05/31 01:56:06;;;;;;;5.80;4.82;;;16.30;94.60;;;;;;5024307;28;20216;-37
2023/05/31 01:58:41;;;;;;;6.55;5.25;;;16.30;94.70;;;;;;5025854;28;20213;-37
2023/05/31 02:01:11;;;;;;;5.72;4.97;;;16.30;94.70;;;;;;5026456;28;20734;-37
2023/05/31 02:03:42;;;;;;;5.05;4.55;;;16.20;94.70;;;;;;5025102;28;20212;-37
2023/05/31 02:06:14;;;;;;;5.13;4.65;;;16.20;94.70;;;;;;5026422;28;20221;-37
2023/05/31 02:08:41;;;;;;;5.43;4.93;;;16.20;94.70;;;;;;5024341;28;20742;-37
2023/05/31 02:11:08;;;;;;;5.60;5.10;;;16.20;94.60;;;;;;5024808;28;20583;-37
2023/05/31 02:13:38;;;;;;;5.97;5.38;;;16.20;94.60;;;;;;5023272;28;20205;-37
2023/05/31 02:16:08;;;;;;;6.30;5.70;;;16.20;94.60;;;;;;5024854;28;20213;-37
2023/05/31 02:18:35;;;;;;;6.85;5.35;;;16.10;94.70;;;;;;5024635;28;20567;-37
2023/05/31 02:21:06;;;;;;;5.32;4.75;;;16.10;94.80;;;;;;5024455;28;20209;-37
2023/05/31 02:23:33;;;;;;;6.10;4.97;;;16.00;94.80;;;;;;5024356;28;20653;-36
2023/05/31 02:26:04;;;;;;;5.90;5.40;;;16.00;94.90;;;;;;5024910;28;20315;-36
2023/05/31 02:28:31;;;;;;;6.40;5.60;;;16.00;94.90;;;;;;5010045;28;20741;-37
2023/05/31 02:31:00;;;;;;;5.53;5.03;;;16.00;95.00;;;;;;5024693;28;20985;-37
2023/05/31 02:33:29;;;;;;;7.20;5.35;;;15.90;94.80;;;;;;5024042;28;20708;-37
2023/05/31 02:35:59;;;;;;;6.05;5.45;;;16.00;94.90;;;;;;5024064;28;20229;-36
2023/05/31 02:38:31;;;;;;;5.75;5.18;;;16.00;94.90;;;;;;5025606;28;20692;-37
2023/05/31 02:40:59;;;;;;;6.60;6.00;;;15.90;95.00;;;;;;5024142;28;20197;-36
2023/05/31 02:43:30;;;;;;;6.78;4.85;;;15.90;94.90;;;;;;5024881;28;20256;-37
2023/05/31 02:46:01;;;;;;;6.65;5.95;;;15.90;94.90;;;;;;5023086;28;20291;-37
2023/05/31 02:48:29;;;;;;;6.22;5.60;;;15.90;95.00;;;;;;5016068;28;20217;-36
2023/05/31 02:50:58;;;;;;;7.13;5.60;;;15.90;94.90;;;;;;5017302;28;20753;-36
2023/05/31 02:53:29;;;;;;;6.20;5.60;;;15.90;95.00;;;;;;5023805;28;20578;-36
2023/05/31 02:55:59;;;;;;;7.07;5.72;;;15.80;95.00;;;;;;5023353;28;20223;-36
2023/05/31 02:58:26;;;;;;;6.53;5.72;;;15.80;95.00;;;;;;5023214;28;20217;-37
2023/05/31 03:00:56;;;;;;;6.70;6.00;;;15.80;94.90;;;;;;5023390;28;20288;-37
2023/05/31 03:03:23;;;;;;;5.93;5.43;;;15.70;95.00;;;;;;5044799;28;20329;-37
2023/05/31 03:05:51;;;;;;;6.43;5.80;;;15.70;94.90;;;;;;5041827;28;20311;-37
2023/05/31 03:08:18;;;;;;;6.80;6.20;;;15.70;95.00;;;;;;5045047;28;20808;-37
2023/05/31 03:10:46;;;;;;;7.03;5.95;;;15.70;95.30;;;;;;5017800;28;20229;-37
2023/05/31 03:13:13;;;;;;;8.85;6.10;;;15.70;95.00;;;;;;5022793;28;20296;-37
2023/05/31 03:15:44;;;;;;;6.22;5.63;;;15.60;95.10;;;;;;5025048;28;20538;-37
2023/05/31 03:18:11;;;;;;;7.88;5.95;;;15.60;95.10;;;;;;5023408;28;20232;-37
2023/05/31 03:20:43;;;;;;;6.63;6.00;;;15.60;95.10;;;;;;5024209;28;20233;-36
2023/05/31 03:23:11;;;;;;;7.13;6.03;;;15.60;95.10;;;;;;5023257;28;20849;-37
2023/05/31 03:25:43;;;;;;;6.97;6.20;;;15.50;95.00;;;;;;5024860;28;20201;-37
2023/05/31 03:28:12;;;;;;;7.10;6.40;;;15.50;95.00;;;;;;5024061;28;20221;-37
2023/05/31 03:30:42;;;;;;;6.55;5.95;;;15.50;95.20;;;;;;5024851;28;20972;-37
2023/05/31 03:33:10;;;;;;;7.60;6.25;;;15.50;95.20;;;;;;5024734;28;20216;-37
2023/05/31 03:35:37;;;;;;;7.18;6.47;;;15.50;95.00;;;;;;5023154;28;20201;-37
2023/05/31 03:38:04;;;;;;;6.40;5.80;;;15.50;95.10;;;;;;5023918;28;20228;-38
2023/05/31 03:40:36;;;;;;;6.90;6.30;;;15.50;95.10;;;;;;5021565;28;20300;-36
2023/05/31 03:43:04;;;;;;;8.75;6.65;;;15.50;95.10;;;;;;5013667;28;20247;-37
2023/05/31 03:45:31;;;;;;;8.18;7.03;;;15.40;95.20;;;;;;5008905;28;20320;-37
2023/05/31 03:47:59;;;;;;;7.80;6.35;;;15.40;95.30;;;;;;5024136;28;20264;-37
2023/05/31 03:50:31;;;;;;;8.52;6.10;;;15.40;95.20;;;;;;5022855;28;20201;-37
2023/05/31 03:52:58;;;;;;;7.55;6.75;;;15.40;95.30;;;;;;5024189;28;20292;-36
2023/05/31 03:55:28;;;;;;;8.38;6.32;;;15.40;95.20;;;;;;5027904;28;20205;-37
2023/05/31 03:57:58;;;;;;;6.75;6.13;;;15.40;95.20;;;;;;5014979;28;20196;-36
2023/05/31 04:00:26;;;;;;;7.47;6.68;;;15.40;95.10;;;;;;5024394;28;20204;-37
2023/05/31 04:02:53;;;;;;;7.80;6.82;;;15.30;95.00;;;;;;5023061;28;20867;-36
2023/05/31 04:05:33;;;;;;;7.47;6.78;;;15.40;95.20;;;;;;5023443;28;20643;-37
2023/05/31 04:08:03;;;;;;;7.65;6.88;;;15.30;95.10;;;;;;5017670;28;20201;-36
2023/05/31 04:10:33;;;;;;;7.97;6.68;;;15.30;95.30;;;;;;5018439;28;20213;-36
2023/05/31 04:13:01;;;;;;;7.20;6.50;;;15.30;95.30;;;;;;5023666;28;20204;-36
2023/05/31 04:15:28;;;;;;;9.15;6.82;;;15.30;95.20;;;;;;5018844;28;20354;-36
2023/05/31 04:17:55;;;;;;;7.53;6.82;;;15.30;95.50;;;;;;5024149;28;20283;-36
2023/05/31 04:20:25;;;;;;;8.10;7.30;;;15.30;95.40;;;;;;5024483;28;20196;-36
2023/05/31 04:22:53;;;;;;;7.72;6.93;;;15.30;95.80;;;;;;5023050;28;20193;-36
2023/05/31 04:25:25;;;;;;;8.55;7.68;;;15.20;95.50;;;;;;5024417;28;20205;-36
2023/05/31 04:27:57;;;;;;;7.90;7.10;;;15.20;95.60;;;;;;5003268;28;20207;-37
2023/05/31 04:30:24;;;;;;;8.50;7.22;;;15.20;95.60;;;;;;5002198;28;20225;-36
2023/05/31 04:32:57;;;;;;;8.60;7.72;;;15.20;95.80;;;;;;5012321;28;20208;-37
2023/05/31 04:35:28;;;;;;;9.07;7.43;;;15.20;95.70;;;;;;5021465;28;20205;-37
2023/05/31 04:37:59;;;;;;;8.07;7.03;;;15.20;95.60;;;;;;5019841;28;20594;-37
2023/05/31 04:40:32;;;;;;;7.95;6.88;;;15.30;95.70;;;;;;5022753;28;20221;-36
2023/05/31 04:43:03;;;;;;;8.80;7.72;;;15.30;95.60;;;;;;5023639;28;20322;-37
2023/05/31 04:45:32;;;;;;;10.35;7.60;;;15.30;96.00;;;;;;5023168;28;20236;-36
2023/05/31 04:48:04;;;;;;;9.35;8.10;;;15.30;95.80;;;;;;5024051;28;20299;-36
2023/05/31 04:50:31;;;;;;;11.57;8.75;;;15.30;95.90;;;;;;5024481;28;20304;-37
2023/05/31 04:53:02;;;;;;;11.88;8.48;;;15.30;95.90;;;;;;5022857;28;20271;-37
2023/05/31 04:55:31;;;;;;;9.75;8.00;;;15.30;96.00;;;;;;5024439;28;20217;-37
2023/05/31 04:57:58;;;;;;;9.98;8.40;;;15.30;95.90;;;;;;5021386;28;20236;-36
2023/05/31 05:00:32;;;;;;;9.32;8.43;;;15.30;95.90;;;;;;5023821;28;20205;-37
2023/05/31 05:03:01;;;;;;;9.82;8.40;;;15.40;96.10;;;;;;5010581;28;20203;-36
2023/05/31 05:05:31;;;;;;;9.38;8.38;;;15.40;96.20;;;;;;5005555;28;20301;-36
2023/05/31 05:07:58;;;;;;;15.80;8.63;;;15.40;96.10;;;;;;5014217;28;20212;-36
2023/05/31 05:10:26;;;;;;;12.65;9.45;;;15.40;96.20;;;;;;5019222;28;20225;-36
2023/05/31 05:12:55;;;;;;;10.23;9.30;;;15.40;96.50;;;;;;5022313;28;20205;-36
2023/05/31 05:15:25;;;;;;;10.13;9.02;;;15.40;96.60;;;;;;5020874;28;20217;-36
2023/05/31 05:17:52;;;;;;;10.68;9.57;;;15.40;96.60;;;;;;5007361;28;20217;-37
2023/05/31 05:20:20;;;;;;;11.33;10.13;;;15.40;96.60;;;;;;5007321;28;20202;-37
2023/05/31 05:22:54;;;;;;;11.18;9.43;;;15.40;97.10;;;;;;5006851;28;20210;-36
2023/05/31 05:25:22;;;;;;;13.43;10.25;;;15.40;96.90;;;;;;5019876;28;20308;-37
2023/05/31 05:27:50;;;;;;;11.48;10.38;;;15.40;97.10;;;;;;5008781;28;20305;-36
2023/05/31 05:30:17;;;;;;;10.10;9.10;;;15.40;97.20;;;;;;5013859;28;20229;-36
2023/05/31 05:32:44;;;;;;;11.18;9.63;;;15.40;96.70;;;;;;5012122;28;20339;-38
2023/05/31 05:35:12;;;;;;;10.30;9.30;;;15.40;97.40;;;;;;5009547;28;20212;-36
2023/05/31 05:37:39;;;;;;;11.10;10.00;;;15.50;97.00;;;;;;5012163;28;20237;-37
2023/05/31 05:40:09;;;;;;;10.93;9.60;;;15.50;97.10;;;;;;5008162;28;20209;-38
2023/05/31 05:42:36;;;;;;;10.40;8.85;;;15.50;97.10;;;;;;5013648;28;20260;-36
2023/05/31 05:45:06;;;;;;;13.48;10.20;;;15.60;97.00;;;;;;5004308;28;20944;-36
2023/05/31 05:47:37;;;;;;;10.63;9.35;;;15.60;97.10;;;;;;5021778;28;20270;-36
2023/05/31 05:50:07;;;;;;;10.25;9.18;;;15.70;97.00;;;;;;5011539;28;20243;-36
2023/05/31 05:52:37;;;;;;;13.65;9.82;;;15.70;97.00;;;;;;5022944;28;20205;-36
2023/05/31 05:55:07;;;;;;;14.15;11.30;;;15.80;97.00;;;;;;5005838;28;20219;-36
2023/05/31 05:57:37;;;;;;;14.32;11.50;;;15.80;97.70;;;;;;5025768;28;20212;-36
2023/05/31 06:00:15;;;;;;;13.52;10.43;;;15.80;98.10;;;;;;5024470;28;20205;-36
2023/05/31 06:02:42;;;;;;;13.50;10.68;;;15.90;97.40;;;;;;5024943;28;20224;-36
2023/05/31 06:05:10;;;;;;;21.25;11.32;;;15.90;97.30;;;;;;5019278;28;20216;-37
2023/05/31 06:07:37;;;;;;;13.27;10.65;;;16.00;97.50;;;;;;5004255;28;20859;-36
2023/05/31 06:10:05;;;;;;;14.13;10.60;;;16.00;97.50;;;;;;5025136;28;20229;-36
2023/05/31 06:12:33;;;;;;;12.82;10.32;;;16.10;97.50;;;;;;5021990;28;20205;-37
2023/05/31 06:15:00;;;;;;;15.27;11.65;;;16.20;97.30;;;;;;5018421;28;20215;-37
2023/05/31 06:17:30;;;;;;;21.75;11.60;;;16.20;97.80;;;;;;5024045;28;20209;-38
2023/05/31 06:20:00;;;;;;;16.27;10.38;;;16.20;98.10;;;;;;5023586;28;20666;-39
2023/05/31 06:22:28;;;;;;;15.30;11.27;;;16.30;97.60;;;;;;5023292;28;20558;-38
2023/05/31 06:24:58;;;;;;;12.32;9.68;;;16.30;97.80;;;;;;5017194;28;20231;-36
2023/05/31 06:27:25;;;;;;;12.48;10.32;;;16.40;97.60;;;;;;5007628;28;20213;-36
2023/05/31 06:29:58;;;;;;;11.23;9.32;;;16.40;97.50;;;;;;5016399;28;20239;-38
2023/05/31 06:32:25;;;;;;;15.88;10.82;;;16.50;97.70;;;;;;5018199;28;20857;-38
2023/05/31 06:35:00;;;;;;;11.88;10.15;;;16.50;97.90;;;;;;5011784;28;20628;-40
2023/05/31 06:37:27;;;;;;;13.57;10.82;;;16.50;97.60;;;;;;5015466;28;20208;-38
2023/05/31 06:39:55;;;;;;;20.02;10.65;;;16.60;97.90;;;;;;4991507;28;20216;-37
2023/05/31 06:42:22;;;;;;;15.48;10.00;;;16.60;97.80;;;;;;5019353;28;20781;-37
2023/05/31 06:44:52;;;;;;;11.40;9.63;;;16.70;98.10;;;;;;5020535;28;20224;-36
2023/05/31 06:47:23;;;;;;;13.30;9.82;;;16.70;97.90;;;;;;5023180;28;20717;-36
2023/05/31 06:49:53;;;;;;;12.07;9.82;;;16.70;97.80;;;;;;5023902;28;20285;-37
2023/05/31 06:52:23;;;;;;;13.45;9.73;;;16.80;97.80;;;;;;5022759;28;20651;-37
2023/05/31 06:54:55;;;;;;;15.90;9.57;;;16.90;97.80;;;;;;5012544;28;20220;-37
2023/05/31 06:57:24;;;;;;;11.55;8.90;;;16.90;97.80;;;;;;5019177;28;20232;-36
2023/05/31 06:59:52;;;;;;;12.15;9.82;;;17.00;97.80;;;;;;5022303;28;20200;-38
2023/05/31 07:02:19;;;;;;;12.55;10.07;;;17.00;97.90;;;;;;5024462;28;20228;-36
2023/05/31 07:04:48;;;;;;;12.55;11.25;;;17.10;98.00;;;;;;5002401;28;20236;-36
2023/05/31 07:07:16;;;;;;;11.77;9.77;;;17.20;98.20;;;;;;5022765;28;20225;-37
2023/05/31 07:09:45;;;;;;;14.88;10.13;;;17.20;98.10;;;;;;5021379;28;20229;-36
2023/05/31 07:12:14;;;;;;;13.50;9.98;;;17.20;98.00;;;;;;5023501;28;20205;-38
2023/05/31 07:14:44;;;;;;;11.38;9.77;;;17.20;98.30;;;;;;5023767;28;20290;-38
2023/05/31 07:17:11;;;;;;;11.15;8.75;;;17.20;98.50;;;;;;5003852;28;20293;-38
2023/05/31 07:19:46;;;;;;;11.48;9.85;;;17.30;98.20;;;;;;5019157;28;20235;-37
2023/05/31 07:22:17;;;;;;;12.00;9.85;;;17.40;98.60;;;;;;5023879;28;20291;-38
2023/05/31 07:24:47;;;;;;;12.75;9.68;;;17.40;98.60;;;;;;5021486;28;20223;-38
2023/05/31 07:27:14;;;;;;;12.35;9.27;;;17.50;98.40;;;;;;5022414;28;20288;-37
2023/05/31 07:29:41;;;;;;;11.45;9.65;;;17.60;98.60;;;;;;5023586;28;20217;-38
2023/05/31 07:32:08;;;;;;;12.73;10.00;;;17.60;98.60;;;;;;5024337;28;20742;-37
2023/05/31 07:34:36;;;;;;;10.60;9.50;;;17.70;98.90;;;;;;5022120;28;20228;-38
2023/05/31 07:37:06;;;;;;;9.90;8.20;;;17.70;98.70;;;;;;5038508;28;20212;-38
2023/05/31 07:39:33;;;;;;;8.63;7.38;;;17.80;98.60;;;;;;5023961;28;20323;-39
2023/05/31 07:42:03;;;;;;;11.80;8.70;;;17.90;98.60;;;;;;5022775;28;20227;-39
2023/05/31 07:44:33;;;;;;;17.55;9.68;;;17.90;98.70;;;;;;5015747;28;20220;-40
2023/05/31 07:47:00;;;;;;;9.65;7.65;;;18.00;99.00;;;;;;5019755;28;20233;-37
2023/05/31 07:49:30;;;;;;;8.43;6.82;;;18.10;98.70;;;;;;5018542;28;20225;-37
2023/05/31 07:52:04;;;;;;;10.93;8.70;;;18.10;98.60;;;;;;5018027;28;20324;-39
2023/05/31 07:54:33;;;;;;;12.25;8.13;;;18.20;98.70;;;;;;5017429;28;20209;-37
2023/05/31 07:57:03;;;;;;;13.30;8.93;;;18.30;98.80;;;;;;5020288;28;20296;-37
2023/05/31 07:59:31;;;;;;;11.13;8.13;;;18.30;98.90;;;;;;5013291;28;20205;-37
2023/05/31 08:01:58;;;;;;;12.32;8.25;;;18.40;98.80;;;;;;5012496;28;20299;-38
2023/05/31 08:04:28;;;;;;;12.00;8.05;;;18.50;98.90;;;;;;5022758;28;20220;-40
2023/05/31 08:06:57;;;;;;;14.23;8.73;;;18.50;98.90;;;;;;5007431;28;20953;-37
2023/05/31 08:09:25;;;;;;;10.95;8.05;;;18.50;99.00;;;;;;5015537;28;20228;-36
2023/05/31 08:11:57;;;;;;;14.07;8.50;;;18.60;99.00;;;;;;5012492;28;20655;-37
2023/05/31 08:14:29;;;;;;;11.07;8.98;;;18.70;99.00;;;;;;5019062;28;20282;-37
2023/05/31 08:16:56;;;;;;;9.52;7.80;;;18.80;99.10;;;;;;5023968;28;20212;-37
2023/05/31 08:19:31;;;;;;;10.40;8.10;;;18.80;98.90;;;;;;5022041;28;20203;-37
2023/05/31 08:21:58;;;;;;;13.68;8.73;;;18.90;99.10;;;;;;5020412;28;20209;-38
2023/05/31 08:24:30;;;;;;;11.90;8.27;;;18.90;99.40;;;;;;5022803;28;20213;-38
2023/05/31 08:26:58;;;;;;;9.00;7.00;;;19.00;99.10;;;;;;5008605;28;20229;-38
2023/05/31 08:29:25;;;;;;;11.65;8.15;;;19.00;99.00;;;;;;5006114;28;20665;-40
2023/05/31 08:31:55;;;;;;;11.38;8.75;;;19.10;99.10;;;;;;5013418;28;20197;-40
2023/05/31 08:34:22;;;;;;;9.50;6.80;;;19.20;99.10;;;;;;5023464;28;20200;-40
2023/05/31 08:36:49;;;;;;;12.48;7.47;;;19.20;99.00;;;;;;5027673;28;20565;-40
2023/05/31 08:39:16;;;;;;;12.18;8.18;;;19.30;99.10;;;;;;5025319;28;20632;-38
2023/05/31 08:41:53;;;;;;;10.02;7.78;;;19.30;99.10;;;;;;5016534;28;20273;-39
2023/05/31 08:44:23;;;;;;;10.80;7.13;;;19.30;99.20;;;;;;5016026;28;20743;-37
2023/05/31 08:46:57;;;;;;;7.72;6.13;;;19.40;99.10;;;;;;5012337;28;20324;-40
2023/05/31 08:49:24;;;;;;;12.10;7.20;;;19.50;99.20;;;;;;5014196;28;20221;-40
2023/05/31 08:51:52;;;;;;;10.13;7.30;;;19.60;99.20;;;;;;5024496;28;20197;-40
2023/05/31 08:54:22;;;;;;;10.38;6.45;;;19.60;99.00;;;;;;5024196;28;20702;-40
2023/05/31 08:56:56;;;;;;;11.40;7.20;;;19.70;99.00;;;;;;5016686;28;20194;-38
2023/05/31 08:59:23;;;;;;;12.32;6.30;;;19.70;99.00;;;;;;5015899;28;20239;-39
2023/05/31 09:01:53;;;;;;;11.13;6.68;;;19.80;99.10;;;;;;5020916;28;20304;-39
2023/05/31 09:04:23;;;;;;;11.48;6.80;;;19.80;99.10;;;;;;5023030;28;20201;-39
2023/05/31 09:06:56;;;;;;;12.65;6.97;;;19.90;98.90;;;;;;5019259;28;20208;-39
2023/05/31 09:09:26;;;;;;;12.13;5.85;;;19.90;98.80;;;;;;5022486;28;20217;-39
2023/05/31 09:11:54;;;;;;;13.77;7.40;;;20.00;99.00;;;;;;5012878;28;20245;-39
2023/05/31 09:14:23;;;;;;;8.75;6.25;;;20.00;99.00;;;;;;5013215;28;20203;-39
2023/05/31 09:16:53;;;;;;;13.57;7.53;;;20.10;99.10;;;;;;5008893;28;20254;-39
2023/05/31 09:19:20;;;;;;;8.38;5.47;;;20.10;99.10;;;;;;5021671;28;20212;-39
2023/05/31 09:21:48;;;;;;;7.75;6.03;;;20.20;99.20;;;;;;5018023;28;20213;-40
2023/05/31 09:24:16;;;;;;;11.23;6.80;;;20.30;99.20;;;;;;5021351;28;20296;-39
2023/05/31 09:26:51;;;;;;;8.57;6.30;;;20.30;99.10;;;;;;5022920;28;20200;-39
2023/05/31 09:29:20;;;;;;;13.05;7.13;;;20.50;99.30;;;;;;5022247;28;20220;-39
2023/05/31 09:32:09;;;;;;;10.43;6.03;;;20.50;99.10;;;;;;5023573;28;20208;-37
2023/05/31 09:34:37;;;;;;;13.07;6.82;;;20.60;99.20;;;;;;5018293;28;21089;-37
2023/05/31 09:37:06;;;;;;;8.95;5.80;;;20.70;99.30;;;;;;5007058;28;20227;-39
2023/05/31 09:39:36;;;;;;;8.10;4.72;;;20.70;99.40;;;;;;5018585;28;20204;-37
2023/05/31 09:42:12;;;;;;;8.18;4.75;;;20.80;99.20;;;;;;5023500;28;20312;-37
2023/05/31 09:44:47;;;;;;;6.95;4.95;;;20.90;99.30;;;;;;4995499;28;20229;-37
2023/05/31 09:47:15;;;;;;;10.23;5.20;;;20.90;99.20;;;;;;5022499;28;20299;-37
2023/05/31 09:49:43;;;;;;;10.43;5.13;;;21.00;99.00;;;;;;5006332;28;20260;-37
2023/05/31 09:52:13;;;;;;;8.40;4.65;;;21.10;99.20;;;;;;5016321;28;20208;-37
2023/05/31 09:54:43;;;;;;;7.28;4.75;;;21.10;98.60;;;;;;5021627;28;20292;-38
2023/05/31 09:57:33;;;;;;;6.97;4.43;;;21.10;99.10;;;;;;5020698;28;20267;-37
2023/05/31 10:00:12;;;;;;;9.13;4.68;;;21.20;99.00;;;;;;5022508;28;20219;-37
2023/05/31 10:02:42;;;;;;;10.23;5.03;;;21.20;98.70;;;;;;5021863;28;20205;-37
2023/05/31 10:05:15;;;;;;;10.25;5.50;;;21.20;98.80;;;;;;5023403;28;20286;-37
2023/05/31 10:07:48;;;;;;;9.52;5.03;;;21.30;98.70;;;;;;5023784;28;20259;-37
2023/05/31 10:10:20;;;;;;;8.45;4.47;;;21.40;98.70;;;;;;5018302;28;21037;-37
2023/05/31 10:12:52;;;;;;;21.17;5.07;;;21.40;98.50;;;;;;5020685;28;20303;-42
2023/05/31 10:15:23;;;;;;;8.63;4.57;;;21.40;98.00;;;;;;5017615;28;20611;-39
2023/05/31 10:18:11;;;;;;;8.93;4.60;;;21.40;98.30;;;;;;5025639;28;20292;-39
2023/05/31 10:20:55;;;;;;;6.82;4.05;;;21.50;98.10;;;;;;5023277;28;20760;-39
2023/05/31 10:23:24;;;;;;;5.55;3.58;;;21.60;98.60;;;;;;5018727;28;20274;-40
2023/05/31 10:25:56;;;;;;;8.40;4.47;;;21.60;98.80;;;;;;5015444;28;20221;-39
2023/05/31 10:28:28;;;;;;;5.90;4.00;;;21.70;98.70;;;;;;5018367;28;20202;-37
2023/05/31 10:30:56;;;;;;;5.70;4.05;;;21.80;98.90;;;;;;5018826;28;20213;-38
2023/05/31 10:33:30;;;;;;;8.77;4.32;;;21.90;98.40;;;;;;5021144;28;20208;-40
2023/05/31 10:35:59;;;;;;;10.40;4.38;;;22.00;98.80;;;;;;5020906;28;20949;-39
2023/05/31 10:38:41;;;;;;;7.57;3.78;;;22.00;98.10;;;;;;5018889;28;20225;-39
2023/05/31 10:41:15;;;;;;;7.30;3.15;;;22.00;98.20;;;;;;5010542;28;20728;-39
2023/05/31 10:44:09;;;;;;;11.32;4.15;;;22.00;96.90;;;;;;5011803;28;20240;-38
2023/05/31 10:46:41;;;;;;;8.27;3.50;;;22.10;97.00;;;;;;5021774;28;20205;-37
2023/05/31 10:49:10;;;;;;;4.97;3.00;;;22.20;97.70;;;;;;5019218;28;20363;-37
2023/05/31 10:51:39;;;;;;;8.00;3.38;;;22.20;98.10;;;;;;5024331;28;20224;-38
2023/05/31 10:54:20;;;;;;;8.13;4.15;;;22.30;98.20;;;;;;5022285;28;20268;-38
2023/05/31 10:56:58;;;;;;;7.90;4.20;;;22.40;97.80;;;;;;5018172;28;20512;-37
2023/05/31 10:59:28;;;;;;;7.47;3.90;;;22.40;96.60;;;;;;5017394;28;20224;-37
2023/05/31 11:02:00;;;;;;;7.47;3.47;;;22.40;96.90;;;;;;5012699;28;20205;-37
2023/05/31 11:04:30;;;;;;;5.40;3.17;;;22.50;97.40;;;;;;5014006;28;20212;-38
2023/05/31 11:07:21;;;;;;;7.03;3.25;;;22.60;97.70;;;;;;5015265;28;20227;-37
2023/05/31 11:09:56;;;;;;;6.72;3.13;;;22.70;97.80;;;;;;5020485;28;20300;-37
2023/05/31 11:12:34;;;;;;;5.63;2.95;;;22.70;96.60;;;;;;5013914;28;20193;-38
2023/05/31 11:15:04;;;;;;;6.95;3.03;;;22.70;97.20;;;;;;5012106;28;20291;-38
2023/05/31 11:17:57;;;;;;;12.93;3.30;;;22.70;96.50;;;;;;5008662;28;20337;-38
2023/05/31 11:20:26;;;;;;;9.27;3.10;;;22.80;97.20;;;;;;5016847;28;20212;-38
2023/05/31 11:23:24;;;;;;;4.70;3.00;;;22.90;97.20;;;;;;5025716;28;20216;-38
2023/05/31 11:26:28;;;;;;;9.00;3.28;;;23.00;97.60;;;;;;5013284;28;20267;-39
2023/05/31 11:29:03;;;;;;;6.60;3.10;;;23.00;95.00;;;;;;4982327;28;20224;-39
2023/05/31 11:31:54;;;;;;;6.60;2.83;;;23.00;96.20;;;;;;5017239;28;20232;-40
2023/05/31 11:34:27;;;;;;;9.30;3.20;;;23.10;96.20;;;;;;5019117;28;20249;-39
2023/05/31 11:37:00;;;;;;;10.25;3.67;;;23.10;95.40;;;;;;5013625;28;21005;-38
2023/05/31 11:39:29;;;;;;;6.95;3.10;;;23.10;94.80;;;;;;5016101;28;20197;-38
2023/05/31 11:42:00;;;;;;;9.90;3.03;;;23.10;95.40;;;;;;5005814;28;20206;-37
2023/05/31 11:44:30;;;;;;;7.35;3.05;;;23.10;94.30;;;;;;5021085;28;20671;-37
2023/05/31 11:47:09;;;;;;;8.82;3.20;;;23.10;94.60;;;;;;5024537;28;20956;-39
2023/05/31 11:49:41;;;;;;;7.25;3.05;;;23.20;93.80;;;;;;5023057;28;20219;-37
2023/05/31 11:52:16;;;;;;;10.75;3.38;;;23.30;95.00;;;;;;5013740;28;20229;-38
2023/05/31 11:54:50;;;;;;;6.47;2.90;;;23.40;95.20;;;;;;5004820;28;20893;-37
2023/05/31 11:57:19;;;;;;;6.57;2.95;;;23.40;95.20;;;;;;5004266;28;20216;-37
2023/05/31 11:59:46;;;;;;;7.53;2.97;;;23.50;95.60;;;;;;5023664;28;20259;-39
2023/05/31 12:02:14;;;;;;;8.65;3.10;;;23.60;95.50;;;;;;4991280;28;20208;-39
2023/05/31 12:04:51;;;;;;;7.13;2.78;;;23.70;95.50;;;;;;5023187;28;20298;-37
2023/05/31 12:07:19;;;;;;;6.90;2.80;;;23.80;96.20;;;;;;5010006;28;20215;-37
2023/05/31 12:09:51;;;;;;;7.82;3.22;;;23.80;95.90;;;;;;5021105;28;20205;-38
2023/05/31 12:12:21;;;;;;;6.03;3.03;;;23.90;95.80;;;;;;5006622;28;20231;-39
2023/05/31 12:14:53;;;;;;;6.35;2.80;;;24.00;95.10;;;;;;5021998;28;20275;-38
2023/05/31 12:17:23;;;;;;;6.22;2.85;;;24.00;95.00;;;;;;5024418;28;20981;-40
2023/05/31 12:19:55;;;;;;;7.82;3.13;;;24.00;95.80;;;;;;5021167;28;20205;-39
2023/05/31 12:22:25;;;;;;;6.55;2.85;;;24.00;95.20;;;;;;5025359;28;20670;-38
2023/05/31 12:24:55;;;;;;;12.85;3.53;;;24.00;94.60;;;;;;5021626;28;20204;-38
2023/05/31 12:27:27;;;;;;;6.20;3.50;;;24.10;95.50;;;;;;5023900;28;20201;-39
2023/05/31 12:30:19;;;;;;;9.23;3.80;;;24.20;94.80;;;;;;5020502;28;20274;-39
2023/05/31 12:32:49;;;;;;;5.03;2.78;;;24.10;94.60;;;;;;5024971;28;20228;-38
2023/05/31 12:35:18;;;;;;;8.65;3.38;;;24.20;95.70;;;;;;5012215;28;20210;-38
2023/05/31 12:37:53;;;;;;;8.10;3.53;;;24.30;95.70;;;;;;5005578;28;20255;-38
2023/05/31 12:40:22;;;;;;;6.63;3.20;;;24.30;95.50;;;;;;5014878;28;20235;-37
2023/05/31 12:43:00;;;;;;;6.03;3.10;;;24.30;94.30;;;;;;5017385;28;20244;-40
2023/05/31 12:45:31;;;;;;;7.43;3.30;;;24.40;94.70;;;;;;5010562;28;20542;-40
2023/05/31 12:47:59;;;;;;;7.90;3.30;;;24.50;95.00;;;;;;5022989;28;20351;-41
2023/05/31 12:50:32;;;;;;;9.43;3.60;;;24.50;95.50;;;;;;5017177;28;20229;-38
2023/05/31 12:53:04;;;;;;;5.47;3.10;;;24.50;94.40;;;;;;5018799;28;20277;-37
2023/05/31 12:55:34;;;;;;;6.18;3.28;;;24.60;95.30;;;;;;5019273;28;20240;-38
2023/05/31 12:58:04;;;;;;;7.70;3.42;;;24.60;95.50;;;;;;5007343;28;20213;-38
2023/05/31 13:00:35;;;;;;;8.88;3.25;;;24.70;94.40;;;;;;5014932;28;20738;-38
2023/05/31 13:03:12;;;;;;;6.40;3.17;;;24.80;94.90;;;;;;5018943;28;20278;-38